< < Back
Terminal Aerodrome Forecast


Current Version              Previous Versions:   1  2  3  4  5  6  7  8  9  

Terminal Aerodrome Forecast

047
FTUS42 KMLB 021728
TAFDAB
TAF
KDAB 021728Z 0218/0318 03011KT P6SM FEW040
     FM022000 06013KT P6SM FEW050
     FM030100 04008KT P6SM FEW050=

Latest METAR

322
SAUS80 KWBC 030800 RRA
MTRDAB
METAR KDAB 030753Z 00000KT 10SM CLR 14/13 A3010 RMK AO2 SLP193
T01440128


USA.gov is the U.S. government's official web portal to all federal, state and local government web resources and services.